Time;durP1;ratioP1;P1;durP2;ratioP2;P2;SDS_P1;SDS_P2;PMS_P1;PMS_P2;Temp;Humidity;BMP_temperature;BMP_pressure;BME280_temperature;BME280_humidity;BME280_pressure;Samples;Min_cycle;Max_cycle;Signal;HPM_P1;HPM_P2
2023/07/27 00:01:07;;;;;;;10.55;5.50;;;;;;;;;;5065507;28;20051;-75
2023/07/27 00:03:33;;;;;;;9.98;5.63;;;;;;;;;;5078469;28;20112;-75
2023/07/27 00:05:59;;;;;;;7.10;5.10;;;;;;;;;;5082314;28;20055;-76
2023/07/27 00:08:25;;;;;;;7.75;5.55;;;;;;;;;;5085198;28;20051;-75
2023/07/27 00:10:51;;;;;;;10.70;5.15;;;;;;;;;;5065040;28;20083;-75
2023/07/27 00:13:18;;;;;;;8.50;5.25;;;;;;;;;;5065653;28;20039;-76
2023/07/27 00:15:44;;;;;;;11.13;5.45;;;;;;;;;;5065072;28;20048;-76
2023/07/27 00:18:10;;;;;;;9.90;5.60;;;;;;;;;;5049966;28;20460;-75
2023/07/27 00:20:36;;;;;;;8.52;5.32;;;;;;;;;;5066775;28;20044;-74
2023/07/27 00:23:02;;;;;;;9.40;6.22;;;;;;;;;;5085776;28;20138;-75
2023/07/27 00:25:28;;;;;;;11.70;6.28;;;;;;;;;;5069340;28;20055;-75
2023/07/27 00:27:54;;;;;;;8.77;5.50;;;;;;;;;;5069797;28;20507;-74
2023/07/27 00:30:21;;;;;;;13.65;6.75;;;;;;;;;;5068993;28;20135;-77
2023/07/27 00:32:47;;;;;;;12.07;6.93;;;;;;;;;;5069618;28;20036;-75
2023/07/27 00:35:13;;;;;;;12.18;7.10;;;;;;;;;;5086922;28;20063;-75
2023/07/27 00:37:39;;;;;;;10.75;6.55;;;;;;;;;;5067899;28;20066;-75
2023/07/27 00:40:05;;;;;;;11.73;6.72;;;;;;;;;;5066739;28;20082;-75
2023/07/27 00:42:31;;;;;;;12.20;6.25;;;;;;;;;;5048628;28;20377;-75
2023/07/27 00:44:57;;;;;;;11.35;6.30;;;;;;;;;;5070093;28;20058;-76
2023/07/27 00:47:23;;;;;;;10.00;7.10;;;;;;;;;;5051120;28;20170;-75
2023/07/27 00:49:50;;;;;;;12.88;7.10;;;;;;;;;;5053771;28;20048;-76
2023/07/27 00:52:16;;;;;;;13.15;7.38;;;;;;;;;;5048082;28;20051;-75
2023/07/27 00:54:42;;;;;;;11.23;7.32;;;;;;;;;;5085358;27;20040;-76
2023/07/27 00:57:08;;;;;;;12.48;7.25;;;;;;;;;;5067130;28;20055;-76
2023/07/27 00:59:34;;;;;;;12.98;7.43;;;;;;;;;;5054044;28;20075;-76
2023/07/27 01:02:00;;;;;;;11.73;6.82;;;;;;;;;;5051990;28;20094;-76
2023/07/27 01:04:27;;;;;;;13.48;7.50;;;;;;;;;;5031673;27;20491;-76
2023/07/27 01:06:53;;;;;;;9.52;6.80;;;;;;;;;;5067820;28;20058;-76
2023/07/27 01:09:19;;;;;;;14.32;7.45;;;;;;;;;;5069097;28;20051;-75
2023/07/27 01:11:51;;;;;;;13.32;7.47;;;;;;;;;;5081938;28;20059;-75
2023/07/27 01:14:56;;;;;;;9.93;6.85;;;;;;;;;;5064444;28;20036;-75
2023/07/27 01:17:25;;;;;;;10.80;8.00;;;;;;;;;;4980501;28;20068;-76
2023/07/27 01:20:06;;;;;;;12.73;7.60;;;;;;;;;;4958089;28;20557;-75
2023/07/27 01:22:32;;;;;;;12.82;7.32;;;;;;;;;;5044473;28;20082;-76
2023/07/27 01:25:13;;;;;;;12.70;7.22;;;;;;;;;;5063596;27;20048;-75
2023/07/27 01:27:49;;;;;;;11.73;7.68;;;;;;;;;;5061543;28;20051;-75
2023/07/27 01:30:38;;;;;;;13.57;8.18;;;;;;;;;;5064748;28;20126;-76
2023/07/27 01:33:06;;;;;;;13.80;7.75;;;;;;;;;;5063950;28;20539;-76
2023/07/27 01:35:36;;;;;;;12.50;7.75;;;;;;;;;;5086287;28;20361;-75
2023/07/27 01:38:03;;;;;;;12.05;8.02;;;;;;;;;;5061621;28;20116;-76
2023/07/27 01:40:30;;;;;;;14.68;8.02;;;;;;;;;;5064574;28;20047;-75
2023/07/27 01:42:56;;;;;;;12.25;8.27;;;;;;;;;;5061184;28;20066;-76
2023/07/27 01:45:23;;;;;;;12.30;8.25;;;;;;;;;;5046685;28;20601;-76
2023/07/27 01:47:50;;;;;;;14.90;9.75;;;;;;;;;;5085149;28;20052;-76
2023/07/27 01:50:17;;;;;;;13.25;8.20;;;;;;;;;;5063165;28;20501;-76
2023/07/27 01:52:44;;;;;;;14.45;8.55;;;;;;;;;;5065439;28;20071;-76
2023/07/27 01:55:12;;;;;;;11.43;8.57;;;;;;;;;;5082715;28;20051;-76
2023/07/27 01:57:38;;;;;;;13.57;8.00;;;;;;;;;;5062989;28;20051;-75
2023/07/27 02:00:05;;;;;;;13.73;7.75;;;;;;;;;;5079418;28;20051;-75
2023/07/27 02:02:31;;;;;;;14.23;8.20;;;;;;;;;;5042737;28;20254;-75
2023/07/27 02:04:58;;;;;;;12.63;7.63;;;;;;;;;;5062600;28;20092;-74
2023/07/27 02:07:24;;;;;;;16.52;7.55;;;;;;;;;;5046929;28;20555;-76
2023/07/27 02:09:50;;;;;;;13.50;8.35;;;;;;;;;;5063688;28;20059;-75
2023/07/27 02:12:26;;;;;;;13.45;8.23;;;;;;;;;;5041130;28;20111;-76
2023/07/27 02:15:02;;;;;;;10.45;7.18;;;;;;;;;;5079676;28;20047;-75
2023/07/27 02:17:31;;;;;;;14.90;7.95;;;;;;;;;;5045047;28;20644;-75
2023/07/27 02:19:58;;;;;;;14.38;7.85;;;;;;;;;;5083297;28;20070;-75
2023/07/27 02:22:25;;;;;;;12.82;8.00;;;;;;;;;;5063595;28;20127;-76
2023/07/27 02:24:51;;;;;;;11.93;8.05;;;;;;;;;;5080939;28;20077;-75
2023/07/27 02:27:17;;;;;;;13.20;7.55;;;;;;;;;;5062400;28;20094;-76
2023/07/27 02:29:44;;;;;;;15.10;7.13;;;;;;;;;;5071990;28;20059;-74
2023/07/27 02:32:10;;;;;;;13.25;7.97;;;;;;;;;;5084728;28;20571;-75
2023/07/27 02:34:37;;;;;;;12.27;7.75;;;;;;;;;;5058596;28;20047;-75
2023/07/27 02:37:03;;;;;;;13.68;7.70;;;;;;;;;;5063140;28;20047;-77
2023/07/27 02:39:29;;;;;;;11.15;7.50;;;;;;;;;;5057875;28;20407;-76
2023/07/27 02:41:55;;;;;;;11.80;7.60;;;;;;;;;;5063695;28;20097;-75
2023/07/27 02:44:22;;;;;;;13.52;7.35;;;;;;;;;;5064766;28;20051;-75
2023/07/27 02:46:48;;;;;;;10.38;7.82;;;;;;;;;;5061682;28;21283;-75
2023/07/27 02:49:14;;;;;;;15.55;7.78;;;;;;;;;;5064649;28;20503;-76
2023/07/27 02:51:41;;;;;;;15.05;8.43;;;;;;;;;;5082021;28;20043;-75
2023/07/27 02:54:07;;;;;;;9.48;7.07;;;;;;;;;;5081277;28;20624;-76
2023/07/27 02:56:33;;;;;;;14.50;7.85;;;;;;;;;;5082638;28;20415;-75
2023/07/27 02:58:59;;;;;;;13.02;7.85;;;;;;;;;;5058344;28;20052;-76
2023/07/27 03:01:25;;;;;;;13.68;7.70;;;;;;;;;;5031809;28;20050;-75
2023/07/27 03:03:52;;;;;;;12.63;7.55;;;;;;;;;;5057608;28;20071;-76
2023/07/27 03:06:18;;;;;;;12.10;7.63;;;;;;;;;;5062108;28;20048;-77
2023/07/27 03:08:44;;;;;;;11.68;7.70;;;;;;;;;;5080761;28;20058;-74
2023/07/27 03:11:11;;;;;;;13.50;8.20;;;;;;;;;;5043469;28;20105;-75
2023/07/27 03:13:37;;;;;;;10.85;7.75;;;;;;;;;;5058813;28;20060;-76
2023/07/27 03:16:03;;;;;;;11.32;7.28;;;;;;;;;;5065489;28;20055;-76
2023/07/27 03:18:30;;;;;;;12.85;7.40;;;;;;;;;;5064818;28;20043;-75
2023/07/27 03:20:56;;;;;;;14.15;7.30;;;;;;;;;;5062627;28;20154;-75
2023/07/27 03:23:22;;;;;;;12.88;7.63;;;;;;;;;;5061846;28;20051;-76
2023/07/27 03:25:49;;;;;;;13.40;7.90;;;;;;;;;;5063946;28;20055;-75
2023/07/27 03:28:15;;;;;;;14.50;7.88;;;;;;;;;;5060456;28;20602;-75
2023/07/27 03:30:41;;;;;;;11.75;8.43;;;;;;;;;;5062735;28;20117;-75
2023/07/27 03:33:07;;;;;;;14.85;8.63;;;;;;;;;;5079314;28;20044;-76
2023/07/27 03:35:34;;;;;;;12.77;8.00;;;;;;;;;;5046024;28;20054;-75
2023/07/27 03:38:00;;;;;;;12.57;8.18;;;;;;;;;;5060609;28;20504;-76
2023/07/27 03:40:26;;;;;;;15.45;8.30;;;;;;;;;;5046996;28;20051;-75
2023/07/27 03:42:52;;;;;;;14.52;8.30;;;;;;;;;;5078534;28;20126;-76
2023/07/27 03:45:18;;;;;;;15.90;9.00;;;;;;;;;;5082676;28;20129;-76
2023/07/27 03:47:45;;;;;;;13.45;8.60;;;;;;;;;;5061159;28;20047;-79
2023/07/27 03:50:11;;;;;;;13.88;7.97;;;;;;;;;;5064714;28;20040;-80
2023/07/27 03:52:38;;;;;;;16.77;9.05;;;;;;;;;;5065465;28;20055;-79
2023/07/27 03:55:04;;;;;;;15.50;8.98;;;;;;;;;;5065676;28;20051;-79
2023/07/27 03:57:30;;;;;;;16.75;8.45;;;;;;;;;;5068099;28;20410;-79
2023/07/27 03:59:57;;;;;;;17.13;8.32;;;;;;;;;;5065129;28;20090;-79
2023/07/27 04:02:24;;;;;;;13.95;8.93;;;;;;;;;;5065038;28;20443;-79
2023/07/27 04:04:51;;;;;;;13.88;8.40;;;;;;;;;;5045048;28;20129;-78
2023/07/27 04:07:17;;;;;;;13.77;8.13;;;;;;;;;;5050807;28;20389;-79
2023/07/27 04:09:44;;;;;;;13.23;8.27;;;;;;;;;;5072407;28;20051;-80
2023/07/27 04:12:10;;;;;;;12.20;7.65;;;;;;;;;;5081263;28;20050;-79
2023/07/27 04:14:36;;;;;;;15.43;8.52;;;;;;;;;;5062879;28;20079;-78
2023/07/27 04:17:02;;;;;;;15.77;8.90;;;;;;;;;;5098641;28;20093;-79
2023/07/27 04:19:29;;;;;;;10.02;7.88;;;;;;;;;;5042231;28;20086;-80
2023/07/27 04:21:55;;;;;;;12.63;8.02;;;;;;;;;;5092781;28;20124;-79
2023/07/27 04:24:21;;;;;;;15.80;8.02;;;;;;;;;;5072047;28;20058;-80
2023/07/27 04:26:47;;;;;;;12.52;7.72;;;;;;;;;;5070059;28;20113;-79
2023/07/27 04:29:13;;;;;;;16.27;8.55;;;;;;;;;;5073486;28;20048;-79
2023/07/27 04:31:39;;;;;;;13.30;7.88;;;;;;;;;;5086366;28;21922;-78
2023/07/27 04:34:05;;;;;;;13.85;7.60;;;;;;;;;;5081713;28;20043;-78
2023/07/27 04:36:31;;;;;;;11.90;7.55;;;;;;;;;;5065341;28;20047;-79
2023/07/27 04:38:57;;;;;;;10.80;7.10;;;;;;;;;;5046398;28;20043;-79
2023/07/27 04:41:23;;;;;;;12.73;8.00;;;;;;;;;;5083475;28;20194;-79
2023/07/27 04:43:49;;;;;;;14.65;8.05;;;;;;;;;;5064897;28;20127;-79
2023/07/27 04:46:16;;;;;;;12.85;8.35;;;;;;;;;;5068647;28;20043;-80
2023/07/27 04:48:42;;;;;;;14.50;7.45;;;;;;;;;;5060699;28;20043;-80
2023/07/27 04:51:08;;;;;;;12.40;7.57;;;;;;;;;;5047044;28;20063;-79
2023/07/27 04:53:34;;;;;;;13.25;8.27;;;;;;;;;;5065804;28;20047;-79
2023/07/27 04:56:00;;;;;;;11.27;7.50;;;;;;;;;;5068160;28;22021;-79
2023/07/27 04:58:26;;;;;;;11.52;7.97;;;;;;;;;;5089640;28;20101;-78
2023/07/27 05:00:53;;;;;;;12.27;8.02;;;;;;;;;;5085320;28;20557;-77
2023/07/27 05:03:20;;;;;;;14.35;8.77;;;;;;;;;;5067500;28;20139;-76
2023/07/27 05:05:46;;;;;;;12.70;7.95;;;;;;;;;;5050535;28;20055;-76
2023/07/27 05:08:12;;;;;;;11.35;7.80;;;;;;;;;;5063584;28;20055;-76
2023/07/27 05:10:44;;;;;;;15.63;8.02;;;;;;;;;;5064877;28;20739;-76
2023/07/27 05:13:10;;;;;;;14.40;9.13;;;;;;;;;;5064853;28;20039;-75
2023/07/27 05:15:38;;;;;;;12.93;9.02;;;;;;;;;;5081677;28;20189;-75
2023/07/27 05:18:06;;;;;;;12.35;8.70;;;;;;;;;;5046934;28;20067;-75
2023/07/27 05:20:33;;;;;;;14.15;9.27;;;;;;;;;;5083428;28;20048;-75
2023/07/27 05:22:59;;;;;;;12.02;8.13;;;;;;;;;;5038712;28;20093;-76
2023/07/27 05:25:25;;;;;;;12.77;8.95;;;;;;;;;;5042126;28;20047;-77
2023/07/27 05:27:51;;;;;;;15.90;9.27;;;;;;;;;;5047753;28;20075;-75
2023/07/27 05:30:17;;;;;;;19.98;8.95;;;;;;;;;;5069734;28;20051;-76
2023/07/27 05:32:43;;;;;;;15.13;9.77;;;;;;;;;;5066536;28;20099;-76
2023/07/27 05:35:09;;;;;;;14.45;9.68;;;;;;;;;;5068520;28;20059;-75
2023/07/27 05:37:35;;;;;;;17.45;9.98;;;;;;;;;;5068453;27;20060;-75
2023/07/27 05:40:04;;;;;;;15.70;9.98;;;;;;;;;;5067861;28;20448;-75
2023/07/27 05:42:30;;;;;;;19.30;9.75;;;;;;;;;;5048702;28;20094;-77
2023/07/27 05:44:56;;;;;;;15.25;9.48;;;;;;;;;;5048429;28;20059;-76
2023/07/27 05:47:22;;;;;;;14.50;9.63;;;;;;;;;;5068295;28;20047;-75
2023/07/27 05:49:48;;;;;;;13.60;9.43;;;;;;;;;;5065295;28;20074;-76
2023/07/27 05:52:14;;;;;;;14.80;9.38;;;;;;;;;;5066305;28;20098;-76
2023/07/27 05:54:40;;;;;;;16.83;10.27;;;;;;;;;;5065417;28;20516;-76
2023/07/27 05:57:06;;;;;;;14.35;10.10;;;;;;;;;;5084037;28;20131;-76
2023/07/27 05:59:32;;;;;;;16.08;10.43;;;;;;;;;;5064963;28;20401;-76
2023/07/27 06:01:59;;;;;;;15.10;10.23;;;;;;;;;;5031216;28;20481;-75
2023/07/27 06:04:27;;;;;;;17.02;10.02;;;;;;;;;;5060839;28;20084;-75
2023/07/27 06:06:54;;;;;;;16.83;10.07;;;;;;;;;;5064920;28;20060;-76
2023/07/27 06:09:20;;;;;;;17.35;10.68;;;;;;;;;;5057308;28;20093;-75
2023/07/27 06:11:46;;;;;;;19.33;10.93;;;;;;;;;;5067593;28;20105;-75
2023/07/27 06:14:12;;;;;;;15.40;9.85;;;;;;;;;;5050993;28;20059;-80
2023/07/27 06:16:38;;;;;;;14.60;9.70;;;;;;;;;;5063790;28;20051;-80
2023/07/27 06:19:05;;;;;;;14.95;9.20;;;;;;;;;;5062270;28;20055;-76
2023/07/27 06:21:31;;;;;;;15.63;10.20;;;;;;;;;;5059875;28;20058;-75
2023/07/27 06:23:57;;;;;;;17.02;9.73;;;;;;;;;;5062335;28;20653;-76
2023/07/27 06:26:23;;;;;;;14.80;9.35;;;;;;;;;;5049209;28;20140;-75
2023/07/27 06:28:49;;;;;;;15.70;9.18;;;;;;;;;;5077633;27;20052;-76
2023/07/27 06:31:15;;;;;;;13.57;9.70;;;;;;;;;;5063519;28;20433;-76
2023/07/27 06:33:41;;;;;;;16.77;9.90;;;;;;;;;;5066184;28;20276;-76
2023/07/27 06:36:08;;;;;;;17.10;10.23;;;;;;;;;;5062543;28;20590;-76
2023/07/27 06:38:34;;;;;;;14.55;10.35;;;;;;;;;;5046705;28;20438;-76
2023/07/27 06:41:00;;;;;;;18.40;11.25;;;;;;;;;;5064556;28;20422;-76
2023/07/27 06:43:26;;;;;;;22.17;11.05;;;;;;;;;;5064436;28;20052;-75
2023/07/27 06:45:52;;;;;;;17.65;11.57;;;;;;;;;;5063741;28;20044;-75
2023/07/27 06:48:18;;;;;;;16.38;11.20;;;;;;;;;;5063685;28;20048;-76
2023/07/27 06:50:44;;;;;;;17.92;11.50;;;;;;;;;;5066077;28;20063;-76
2023/07/27 06:53:10;;;;;;;18.40;10.65;;;;;;;;;;5041060;28;20051;-77
2023/07/27 06:55:36;;;;;;;16.25;11.32;;;;;;;;;;5062550;28;20207;-76
2023/07/27 06:58:06;;;;;;;13.75;9.00;;;;;;;;;;5063288;28;20122;-76
2023/07/27 07:00:32;;;;;;;11.50;8.10;;;;;;;;;;5058848;28;20056;-77
2023/07/27 07:02:58;;;;;;;13.18;8.45;;;;;;;;;;5061186;28;20098;-77
2023/07/27 07:05:24;;;;;;;10.88;7.53;;;;;;;;;;5060761;28;20106;-76
2023/07/27 07:07:51;;;;;;;11.10;7.53;;;;;;;;;;5063260;28;20060;-77
2023/07/27 07:10:18;;;;;;;11.95;7.70;;;;;;;;;;5061650;28;20496;-76
2023/07/27 07:12:45;;;;;;;11.40;7.22;;;;;;;;;;5039140;28;20061;-76
2023/07/27 07:15:11;;;;;;;12.40;6.63;;;;;;;;;;5059625;28;20486;-76
2023/07/27 07:17:38;;;;;;;10.95;7.50;;;;;;;;;;5045773;28;20144;-76
2023/07/27 07:20:09;;;;;;;8.75;6.95;;;;;;;;;;5059778;28;20079;-77
2023/07/27 07:22:38;;;;;;;10.82;7.20;;;;;;;;;;5062126;28;20056;-77
2023/07/27 07:25:04;;;;;;;10.07;7.18;;;;;;;;;;5060291;28;20056;-77
2023/07/27 07:27:30;;;;;;;12.70;8.10;;;;;;;;;;5041475;28;20065;-77
2023/07/27 07:29:57;;;;;;;9.68;7.70;;;;;;;;;;5060206;28;20063;-77
2023/07/27 07:32:23;;;;;;;12.95;7.80;;;;;;;;;;5064339;28;20751;-76
2023/07/27 07:34:52;;;;;;;9.80;6.82;;;;;;;;;;5063132;28;20135;-76
2023/07/27 07:37:18;;;;;;;12.30;7.65;;;;;;;;;;5066098;28;20058;-76
2023/07/27 07:39:44;;;;;;;16.10;6.70;;;;;;;;;;5065725;28;20763;-77
2023/07/27 07:42:11;;;;;;;9.07;6.68;;;;;;;;;;5065548;28;20434;-77
2023/07/27 07:44:37;;;;;;;10.63;6.75;;;;;;;;;;5066833;28;20048;-76
2023/07/27 07:47:03;;;;;;;10.10;6.22;;;;;;;;;;5064309;28;20048;-76
2023/07/27 07:49:29;;;;;;;8.35;6.60;;;;;;;;;;5066541;28;20595;-77
2023/07/27 07:51:55;;;;;;;9.02;6.38;;;;;;;;;;5050713;28;20036;-77
2023/07/27 07:54:21;;;;;;;8.52;6.93;;;;;;;;;;5068157;28;20110;-77
2023/07/27 07:56:47;;;;;;;10.77;7.20;;;;;;;;;;5071628;28;20131;-77
2023/07/27 07:59:14;;;;;;;9.63;6.97;;;;;;;;;;5073321;28;20056;-76
2023/07/27 08:01:41;;;;;;;9.77;6.82;;;;;;;;;;5078423;28;20048;-76
2023/07/27 08:04:07;;;;;;;8.80;7.15;;;;;;;;;;5077319;28;20058;-76
2023/07/27 08:06:33;;;;;;;11.00;6.78;;;;;;;;;;5043628;28;20403;-76
2023/07/27 08:08:59;;;;;;;8.98;6.75;;;;;;;;;;5093122;28;20772;-77
2023/07/27 08:11:26;;;;;;;9.77;6.57;;;;;;;;;;5074880;28;20665;-76
2023/07/27 08:13:52;;;;;;;8.23;6.82;;;;;;;;;;5072096;28;20130;-76
2023/07/27 08:16:18;;;;;;;9.85;6.72;;;;;;;;;;5072581;28;20174;-76
2023/07/27 08:18:44;;;;;;;11.38;6.93;;;;;;;;;;5072416;27;20439;-74
2023/07/27 08:21:10;;;;;;;9.18;6.68;;;;;;;;;;5070074;28;20051;-76
2023/07/27 08:23:37;;;;;;;7.18;6.00;;;;;;;;;;5069983;28;20516;-75
2023/07/27 08:26:07;;;;;;;7.35;6.63;;;;;;;;;;5061665;28;20534;-75
2023/07/27 08:28:33;;;;;;;11.68;6.78;;;;;;;;;;5073001;28;20050;-75
2023/07/27 08:30:59;;;;;;;11.02;6.80;;;;;;;;;;5056087;28;20092;-76
2023/07/27 08:33:25;;;;;;;6.80;6.10;;;;;;;;;;5069737;28;20046;-76
2023/07/27 08:35:51;;;;;;;7.82;6.18;;;;;;;;;;5053895;28;20407;-78
2023/07/27 08:38:17;;;;;;;7.43;5.95;;;;;;;;;;5088840;28;20839;-80
2023/07/27 08:41:13;;;;;;;10.65;6.40;;;;;;;;;;5070026;28;20534;-78
2023/07/27 08:43:39;;;;;;;8.82;6.43;;;;;;;;;;5054771;28;20055;-80
2023/07/27 08:46:05;;;;;;;8.05;6.40;;;;;;;;;;5071225;28;20345;-79
2023/07/27 08:48:32;;;;;;;7.63;6.25;;;;;;;;;;5062023;28;20064;-80
2023/07/27 08:50:58;;;;;;;7.35;5.72;;;;;;;;;;5088029;27;20140;-77
2023/07/27 08:53:25;;;;;;;9.00;6.30;;;;;;;;;;5070299;28;20044;-80
2023/07/27 08:55:51;;;;;;;9.70;5.80;;;;;;;;;;5071871;28;20055;-81
2023/07/27 08:58:18;;;;;;;5.65;5.05;;;;;;;;;;5070182;28;20055;-78
2023/07/27 09:00:44;;;;;;;6.80;6.00;;;;;;;;;;5071046;28;20152;-78
2023/07/27 09:03:10;;;;;;;5.95;5.35;;;;;;;;;;5071114;28;20060;-78
2023/07/27 09:05:44;;;;;;;5.82;4.95;;;;;;;;;;5072557;28;20067;-79
2023/07/27 09:08:11;;;;;;;5.78;5.03;;;;;;;;;;5070459;28;20492;-77
2023/07/27 09:10:38;;;;;;;5.20;4.43;;;;;;;;;;5070223;28;20154;-78
2023/07/27 09:13:04;;;;;;;5.82;4.95;;;;;;;;;;5055109;28;20130;-78
2023/07/27 09:15:31;;;;;;;4.85;4.18;;;;;;;;;;5087208;28;20129;-80
2023/07/27 09:17:58;;;;;;;5.32;4.05;;;;;;;;;;5088896;28;20047;-80
2023/07/27 09:20:25;;;;;;;4.25;3.85;;;;;;;;;;5088095;28;20067;-78
2023/07/27 09:22:51;;;;;;;3.92;3.28;;;;;;;;;;5069975;28;20726;-79
2023/07/27 09:25:22;;;;;;;4.68;3.88;;;;;;;;;;5068972;28;20057;-79
2023/07/27 09:27:49;;;;;;;4.88;3.67;;;;;;;;;;5070090;28;20056;-80
2023/07/27 09:30:17;;;;;;;6.65;4.60;;;;;;;;;;5052528;28;20050;-80
2023/07/27 09:32:43;;;;;;;7.35;4.93;;;;;;;;;;5070534;28;20048;-80
2023/07/27 09:35:19;;;;;;;9.55;5.60;;;;;;;;;;5068729;28;20049;-79
2023/07/27 09:37:46;;;;;;;4.97;4.50;;;;;;;;;;5067250;28;20055;-78
2023/07/27 09:40:13;;;;;;;5.97;5.35;;;;;;;;;;5069672;28;20672;-78
2023/07/27 09:42:44;;;;;;;5.88;5.38;;;;;;;;;;5069855;28;20058;-79
2023/07/27 09:45:11;;;;;;;6.22;5.63;;;;;;;;;;5086566;28;20146;-78
2023/07/27 09:47:38;;;;;;;5.38;4.93;;;;;;;;;;5068551;28;20594;-79
2023/07/27 09:50:04;;;;;;;6.30;5.70;;;;;;;;;;5069361;28;20051;-79
2023/07/27 09:52:31;;;;;;;6.15;5.07;;;;;;;;;;5050727;28;20101;-78
2023/07/27 09:55:00;;;;;;;6.22;5.63;;;;;;;;;;5071390;28;20051;-78
2023/07/27 09:57:27;;;;;;;7.10;6.40;;;;;;;;;;5088817;27;20062;-73
2023/07/27 09:59:53;;;;;;;6.57;5.97;;;;;;;;;;5055949;28;20055;-73
2023/07/27 10:02:20;;;;;;;7.88;6.28;;;;;;;;;;5090116;28;20055;-73
2023/07/27 10:04:49;;;;;;;6.75;6.05;;;;;;;;;;5068637;28;20116;-73
2023/07/27 10:07:17;;;;;;;6.07;5.57;;;;;;;;;;5087178;28;20960;-72
2023/07/27 10:09:43;;;;;;;6.53;5.65;;;;;;;;;;5068259;28;20048;-71
2023/07/27 10:12:09;;;;;;;7.00;5.70;;;;;;;;;;5085937;28;20043;-72
2023/07/27 10:14:35;;;;;;;6.35;5.70;;;;;;;;;;5067387;28;20050;-72
2023/07/27 10:17:03;;;;;;;5.90;5.40;;;;;;;;;;5087856;28;20035;-72
2023/07/27 10:19:45;;;;;;;6.10;5.60;;;;;;;;;;5069602;28;20058;-72
2023/07/27 10:22:12;;;;;;;6.35;5.78;;;;;;;;;;5068486;28;20047;-72
2023/07/27 10:24:49;;;;;;;6.57;6.00;;;;;;;;;;5069063;28;20142;-72
2023/07/27 10:27:16;;;;;;;6.53;5.93;;;;;;;;;;5064216;28;20047;-72
2023/07/27 10:29:46;;;;;;;6.28;5.68;;;;;;;;;;5067420;28;20051;-72
2023/07/27 10:32:12;;;;;;;5.97;5.47;;;;;;;;;;5067304;28;20044;-72
2023/07/27 10:34:38;;;;;;;6.18;5.68;;;;;;;;;;5067523;28;20039;-71
2023/07/27 10:37:08;;;;;;;6.55;5.90;;;;;;;;;;5068253;28;21960;-73
2023/07/27 10:39:48;;;;;;;9.18;5.80;;;;;;;;;;5087284;28;20047;-72
2023/07/27 10:42:14;;;;;;;6.03;5.53;;;;;;;;;;5069158;28;20048;-72
2023/07/27 10:44:44;;;;;;;6.40;5.80;;;;;;;;;;5065842;28;20090;-72
2023/07/27 10:47:30;;;;;;;6.97;5.97;;;;;;;;;;5081938;28;20127;-72
2023/07/27 10:49:58;;;;;;;7.05;6.40;;;;;;;;;;5066609;28;20043;-72
2023/07/27 10:52:25;;;;;;;6.80;5.50;;;;;;;;;;5062217;28;20403;-73
2023/07/27 10:54:52;;;;;;;6.90;5.60;;;;;;;;;;5053058;28;20052;-72
2023/07/27 10:57:18;;;;;;;5.68;5.20;;;;;;;;;;5086324;28;20130;-72
2023/07/27 10:59:51;;;;;;;5.93;5.38;;;;;;;;;;5066262;28;20055;-72
2023/07/27 11:02:20;;;;;;;6.07;5.00;;;;;;;;;;5086047;28;20051;-73
2023/07/27 11:04:49;;;;;;;5.88;5.32;;;;;;;;;;5083868;28;20519;-73
2023/07/27 11:07:25;;;;;;;8.93;5.97;;;;;;;;;;5085736;28;20048;-72
2023/07/27 11:09:51;;;;;;;7.88;6.82;;;;;;;;;;5051252;28;20569;-73
2023/07/27 11:12:17;;;;;;;9.57;6.65;;;;;;;;;;5085326;28;20083;-72
2023/07/27 11:14:44;;;;;;;6.50;5.97;;;;;;;;;;5087050;28;20591;-71
2023/07/27 11:17:11;;;;;;;6.20;5.70;;;;;;;;;;5067823;28;20064;-71
2023/07/27 11:19:37;;;;;;;4.63;4.32;;;;;;;;;;5066369;28;20591;-71
2023/07/27 11:22:04;;;;;;;5.10;4.57;;;;;;;;;;5085903;28;20048;-72
2023/07/27 11:24:31;;;;;;;4.57;4.18;;;;;;;;;;5067026;28;20051;-72
2023/07/27 11:26:57;;;;;;;5.20;4.80;;;;;;;;;;5050468;28;20058;-72
2023/07/27 11:29:23;;;;;;;6.05;5.55;;;;;;;;;;5069018;28;20047;-72
2023/07/27 11:31:58;;;;;;;6.22;5.72;;;;;;;;;;5066787;28;20050;-72
2023/07/27 11:34:28;;;;;;;9.27;5.95;;;;;;;;;;5066546;28;20058;-70
2023/07/27 11:36:56;;;;;;;7.30;6.50;;;;;;;;;;5086506;28;20044;-71
2023/07/27 11:39:22;;;;;;;7.82;7.03;;;;;;;;;;5086668;28;20094;-70
2023/07/27 11:41:52;;;;;;;8.52;7.63;;;;;;;;;;5080504;28;20058;-72
2023/07/27 11:44:21;;;;;;;9.77;8.82;;;;;;;;;;5091830;28;20054;-71
2023/07/27 11:46:53;;;;;;;10.05;9.15;;;;;;;;;;5072362;28;20051;-71
2023/07/27 11:49:21;;;;;;;10.23;9.32;;;;;;;;;;5072047;28;20051;-71
2023/07/27 11:51:48;;;;;;;8.73;7.90;;;;;;;;;;5087635;28;20141;-72
2023/07/27 11:54:24;;;;;;;9.85;8.88;;;;;;;;;;5072873;28;20051;-73
2023/07/27 11:56:54;;;;;;;8.63;7.93;;;;;;;;;;5053841;28;20047;-72
2023/07/27 11:59:21;;;;;;;8.73;7.90;;;;;;;;;;5054018;28;20058;-72
2023/07/27 12:01:51;;;;;;;8.68;7.97;;;;;;;;;;5086802;28;20043;-72
2023/07/27 12:04:18;;;;;;;6.13;5.63;;;;;;;;;;5069157;28;20039;-72
2023/07/27 12:06:44;;;;;;;6.50;5.78;;;;;;;;;;5069410;28;20084;-73
2023/07/27 12:09:11;;;;;;;6.70;6.00;;;;;;;;;;5069725;28;20094;-72
2023/07/27 12:11:38;;;;;;;5.90;5.40;;;;;;;;;;5069780;28;22152;-71
2023/07/27 12:14:05;;;;;;;6.45;5.80;;;;;;;;;;5067385;28;20127;-72
2023/07/27 12:16:42;;;;;;;6.40;5.80;;;;;;;;;;5069267;28;20051;-72
2023/07/27 12:19:08;;;;;;;7.07;6.53;;;;;;;;;;5073405;28;20117;-72
2023/07/27 12:21:38;;;;;;;7.68;6.85;;;;;;;;;;5048935;28;20051;-73
2023/07/27 12:24:08;;;;;;;5.93;5.43;;;;;;;;;;5089346;28;20050;-72
2023/07/27 12:26:35;;;;;;;5.72;5.22;;;;;;;;;;5070711;28;20166;-72
2023/07/27 12:29:01;;;;;;;5.13;4.72;;;;;;;;;;5070956;28;20163;-72
2023/07/27 12:31:27;;;;;;;5.28;4.70;;;;;;;;;;5053417;28;20052;-72
2023/07/27 12:33:53;;;;;;;5.47;4.97;;;;;;;;;;5066488;28;20040;-71
2023/07/27 12:36:20;;;;;;;5.30;4.90;;;;;;;;;;5064635;28;20051;-72
2023/07/27 12:38:46;;;;;;;4.35;3.95;;;;;;;;;;5084010;28;20102;-74
2023/07/27 12:41:13;;;;;;;4.55;4.25;;;;;;;;;;5086127;28;20122;-70
2023/07/27 12:43:39;;;;;;;4.80;4.18;;;;;;;;;;5068429;28;20059;-70
2023/07/27 12:46:06;;;;;;;6.70;4.20;;;;;;;;;;5086100;28;20052;-71
2023/07/27 12:48:32;;;;;;;3.80;3.50;;;;;;;;;;5057653;28;20060;-72
2023/07/27 12:50:58;;;;;;;3.70;3.50;;;;;;;;;;5070075;28;20047;-72
2023/07/27 12:53:24;;;;;;;3.85;3.55;;;;;;;;;;5071105;28;20066;-72
2023/07/27 12:55:50;;;;;;;4.07;3.78;;;;;;;;;;5068949;28;20098;-71
2023/07/27 12:58:16;;;;;;;3.80;3.50;;;;;;;;;;5068818;28;20050;-73
2023/07/27 13:00:44;;;;;;;3.85;3.20;;;;;;;;;;5068478;28;20178;-72
2023/07/27 13:03:10;;;;;;;3.20;2.95;;;;;;;;;;5084349;28;20059;-72
2023/07/27 13:05:36;;;;;;;5.05;3.30;;;;;;;;;;5067186;28;20052;-71
2023/07/27 13:08:03;;;;;;;3.97;3.67;;;;;;;;;;5085459;28;20052;-71
2023/07/27 13:10:29;;;;;;;6.80;3.47;;;;;;;;;;5084425;27;20122;-72
2023/07/27 13:12:58;;;;;;;3.08;2.88;;;;;;;;;;5084171;28;20046;-72
2023/07/27 13:15:25;;;;;;;2.42;2.33;;;;;;;;;;5083542;27;20043;-71
2023/07/27 13:17:52;;;;;;;3.38;2.70;;;;;;;;;;5086260;28;20594;-72
2023/07/27 13:20:18;;;;;;;3.20;3.00;;;;;;;;;;5068176;28;20062;-71
2023/07/27 13:22:45;;;;;;;4.35;3.20;;;;;;;;;;5072371;28;20047;-71
2023/07/27 13:25:12;;;;;;;3.83;3.53;;;;;;;;;;5053665;28;20553;-72
2023/07/27 13:27:38;;;;;;;3.20;2.90;;;;;;;;;;5082368;28;20050;-72
2023/07/27 13:30:04;;;;;;;3.58;3.25;;;;;;;;;;5064868;28;20059;-72
2023/07/27 13:32:31;;;;;;;5.00;4.60;;;;;;;;;;5085791;28;20158;-70
2023/07/27 13:34:58;;;;;;;5.82;5.35;;;;;;;;;;5067438;28;20051;-71
2023/07/27 13:37:24;;;;;;;5.00;4.53;;;;;;;;;;5070473;28;21075;-72
2023/07/27 13:39:50;;;;;;;4.53;4.15;;;;;;;;;;5068107;28;20051;-71
2023/07/27 13:42:17;;;;;;;5.97;5.47;;;;;;;;;;5053411;28;20460;-71
2023/07/27 13:44:43;;;;;;;6.28;5.80;;;;;;;;;;5069425;28;20052;-70
2023/07/27 13:47:09;;;;;;;8.38;5.95;;;;;;;;;;5065018;28;20158;-71
2023/07/27 13:49:35;;;;;;;6.68;6.18;;;;;;;;;;5067752;28;20150;-71
2023/07/27 13:52:02;;;;;;;8.65;7.95;;;;;;;;;;5065791;28;20050;-71
2023/07/27 13:54:28;;;;;;;7.47;6.20;;;;;;;;;;5088723;28;20530;-80
2023/07/27 13:56:54;;;;;;;5.88;5.47;;;;;;;;;;5071281;28;20050;-81
2023/07/27 13:59:20;;;;;;;6.68;6.18;;;;;;;;;;5070481;28;20048;-81
2023/07/27 14:01:46;;;;;;;8.05;7.35;;;;;;;;;;5071845;28;21365;-81
2023/07/27 14:04:13;;;;;;;8.90;8.20;;;;;;;;;;5071266;28;20120;-82
2023/07/27 14:06:39;;;;;;;11.02;8.55;;;;;;;;;;5081776;28;20544;-71
2023/07/27 14:09:05;;;;;;;7.75;7.00;;;;;;;;;;5066539;28;20128;-71
2023/07/27 14:11:31;;;;;;;9.13;8.23;;;;;;;;;;5065100;28;20176;-71
2023/07/27 14:13:58;;;;;;;9.27;8.48;;;;;;;;;;5064685;28;20094;-70
2023/07/27 14:16:24;;;;;;;8.45;7.75;;;;;;;;;;5065237;28;20044;-70
2023/07/27 14:18:50;;;;;;;8.70;7.95;;;;;;;;;;5082929;28;20600;-70
2023/07/27 14:21:16;;;;;;;9.18;8.48;;;;;;;;;;5049064;28;20051;-71
2023/07/27 14:23:42;;;;;;;9.60;8.70;;;;;;;;;;5049058;28;20083;-70
2023/07/27 14:26:08;;;;;;;9.27;8.57;;;;;;;;;;5063865;28;20075;-71
2023/07/27 14:28:34;;;;;;;9.88;8.98;;;;;;;;;;5064864;28;20113;-72
2023/07/27 14:31:01;;;;;;;8.35;7.63;;;;;;;;;;5065610;28;20435;-72
2023/07/27 14:33:27;;;;;;;7.75;7.07;;;;;;;;;;5081716;28;20047;-70
2023/07/27 14:35:53;;;;;;;7.22;6.72;;;;;;;;;;5064980;28;20568;-71